Latest Weather Observations for Bankstown

IDN60901

Issued at 3:35 pm EDT Saturday 1 November 2014 (issued every 10 minutes, with the page automatically refreshed every 10 minutes)

About weather observations | Map of Sydney area stations | Latest observations for Sydney area | Other Formats
Station Details ID: 066137 Name: BANKSTOWN AIRPORT AWS Lat: -33.92 Lon: 150.99 Height: 6.5 m
Data from the previous 72 hours. | See also: Recent months at Bankstown
Date/Time
EDT
Tmp

°C
App
Tmp
°C
Dew
Point
°C
Rel
Hum
%
Delta-T

°C
Wind Press
QNH
hPa
Press
MSL
hPa
Rain
since
9 am
mm
Dir
 
Spd
km/h
Gust
km/h
Spd
kts
Gust
kts
01/03:30pm 31.8 26.9 12.6 31 11.5 WNW 30 44 16 24 997.5 997.5 0.0
01/03:00pm 31.2 28.5 15.6 39 9.7 WNW 24 33 13 18 997.9 997.9 0.0
01/02:36pm 26.4 22.3 14.8 49 7.0 NW 30 37 16 20 998.7 998.7 0.0
01/02:30pm 26.0 17.7 14.8 50 6.7 W 52 76 28 41 998.8 998.8 0.0
01/02:26pm 29.5 20.2 12.9 36 9.8 WNW 54 72 29 39 999.0 999.0 0.0
01/02:10pm 33.5 27.7 10.8 25 13.2 NW 32 54 17 29 997.4 997.4 0.0
01/02:00pm 34.8 29.3 11.9 25 13.7 NW 32 46 17 25 997.8 997.8 0.0
01/01:54pm 34.5 28.0 10.4 23 14.0 NNW 35 54 19 29 998.2 998.2 0.0
01/01:49pm 35.2 27.5 10.3 22 14.5 NNW 41 54 22 29 998.3 998.3 0.0
01/01:30pm 35.1 29.1 10.9 23 14.2 WNW 33 56 18 30 998.4 998.4 0.0
01/01:02pm 35.4 29.3 11.7 23 14.1 WNW 35 54 19 29 998.9 998.9 0.0
01/01:00pm 35.5 28.9 11.2 23 14.4 WNW 37 54 20 29 998.9 998.9 0.0
01/12:30pm 34.8 28.4 10.6 23 14.2 NW 35 57 19 31 999.1 999.1 0.0
01/12:03pm 34.3 28.7 11.4 25 13.5 NNW 32 52 17 28 999.5 999.5 0.0
01/12:00pm 34.4 28.8 11.5 25 13.6 NNW 32 46 17 25 999.5 999.5 0.0
01/11:30am 33.6 26.9 10.9 25 13.2 NNW 37 52 20 28 1000.1 1000.1 0.0
01/11:00am 32.9 26.7 11.4 27 12.6 NNW 35 52 19 28 1000.7 1000.7 0.0
01/10:46am 32.6 27.3 11.2 27 12.5 NNW 30 50 16 27 1001.3 1001.3 0.0
01/10:30am 32.0 26.5 11.7 28 11.9 NW 32 46 17 25 1001.6 1001.6 0.0
01/10:00am 30.9 25.2 11.3 30 11.4 NW 32 46 17 25 1002.3 1002.3 0.0
01/09:30am 29.9 24.9 10.9 31 10.9 NNW 28 43 15 23 1002.8 1002.8 0.0
01/09:00am 28.9 24.8 11.5 34 10.1 NNW 24 39 13 21 1003.1 1003.1 0.0
01/08:30am 27.8 24.6 11.4 36 9.4 NNW 19 28 10 15 1003.6 1003.6 0.0
01/08:00am 27.0 23.6 11.1 37 9.1 N 20 30 11 16 1003.8 1003.8 0.0
01/07:30am 26.7 22.7 10.4 36 9.1 N 22 32 12 17 1004.1 1004.1 0.0
01/07:00am 26.4 22.7 10.1 36 9.1 NNW 20 30 11 16 1004.3 1004.3 0.0
01/06:30am 25.3 21.7 10.0 38 8.4 N 19 26 10 14 1004.1 1004.1 0.0
01/06:00am 25.4 21.9 10.1 38 8.5 N 19 30 10 16 1003.9 1003.9 0.0
01/05:30am 25.5 22.8 10.5 39 8.4 NNW 15 26 8 14 1003.7 1003.7 0.0
01/05:00am 20.8 20.5 12.8 60 4.6 NW 6 15 3 8 1003.5 1003.5 0.0
01/04:30am 20.4 19.8 13.4 64 4.0 SSW 9 11 5 6 1003.8 1003.8 0.0
01/04:00am 21.0 20.7 13.4 62 4.4 SW 7 13 4 7 1004.1 1004.1 0.0
01/03:30am 21.9 21.2 11.9 53 5.6 N 7 11 4 6 1004.7 1004.7 0.0
01/03:00am 21.1 20.5 11.7 55 5.3 W 6 13 3 7 1004.6 1004.6 0.0
01/02:30am 21.9 22.1 10.4 48 6.3 CALM 0 7 0 4 1004.7 1004.7 0.0
01/02:00am 21.9 20.8 10.7 49 6.2 WNW 7 9 4 5 1005.1 1005.1 0.0
01/01:30am 21.8 20.6 12.9 57 5.1 WNW 11 13 6 7 1005.6 1005.6 0.0
01/01:00am 21.1 21.5 16.3 74 2.9 W 9 11 5 6 1005.7 1005.7 0.0
01/12:30am 22.1 24.1 16.1 69 3.6 CALM 0 0 0 0 1006.0 1006.0 0.0
01/12:00am 22.8 23.4 16.8 69 3.7 NE 9 17 5 9 1006.0 1006.0 0.0
 
Date/Time
EDT
Tmp

°C
App
Tmp
°C
Dew
Point
°C
Rel
Hum
%
Delta-T

°C
Wind Press
QNH
hPa
Press
MSL
hPa
Rain
since
9 am
mm
Dir
 
Spd
km/h
Gust
km/h
Spd
kts
Gust
kts
31/11:30pm 23.4 23.8 15.2 60 4.9 E 7 11 4 6 1006.0 1006.0 0.0
31/11:00pm 23.7 23.2 12.7 50 6.3 ESE 7 11 4 6 1006.2 1006.2 0.0
31/10:30pm 25.1 23.9 10.2 39 8.2 E 7 11 4 6 1006.6 1006.6 0.0
31/10:00pm 24.8 23.7 8.3 35 8.8 ENE 4 9 2 5 1006.9 1006.9 0.0
31/09:30pm 24.5 22.4 6.7 32 9.2 SW 7 9 4 5 1007.2 1007.2 0.0
31/09:00pm 26.9 24.6 5.8 26 11.0 NE 7 17 4 9 1006.9 1006.9 0.0
31/08:30pm 27.5 23.7 5.7 25 11.3 NE 15 22 8 12 1006.5 1006.5 0.0
31/08:00pm 27.8 24.3 5.4 24 11.6 NE 13 20 7 11 1006.6 1006.6 0.0
31/07:30pm 28.4 24.7 4.6 22 12.2 NE 13 20 7 11 1006.6 1006.6 0.0
31/07:00pm 29.2 24.5 5.3 22 12.5 ENE 19 30 10 16 1006.5 1006.5 0.0
31/06:30pm 30.1 26.2 5.4 21 12.9 NE 15 22 8 12 1006.3 1006.3 0.0
31/06:00pm 30.4 26.0 4.9 20 13.3 ENE 17 26 9 14 1006.4 1006.4 0.0
31/05:30pm 31.1 26.4 6.2 21 13.3 NE 20 32 11 17 1006.1 1006.1 0.0
31/05:00pm 31.0 25.5 6.1 21 13.3 NE 24 35 13 19 1005.9 1005.9 0.0
31/04:30pm 31.6 25.3 3.6 17 14.4 NE 26 37 14 20 1005.9 1005.9 0.0
31/04:00pm 32.8 27.9 6.9 20 14.2 ENE 22 33 12 18 1006.1 1006.1 0.0
31/03:30pm 33.1 28.2 7.1 20 14.2 ENE 22 30 12 16 1006.6 1006.6 0.0
31/03:00pm 33.0 27.4 7.1 20 14.2 ENE 26 39 14 21 1006.9 1006.9 0.0
31/02:30pm 34.4 30.2 8.2 20 14.7 E 20 28 11 15 1007.6 1007.6 0.0
31/02:00pm 34.7 30.2 -0.1 11 17.2 NNW 13 24 7 13 1008.3 1008.3 0.0
31/01:30pm 33.9 28.1 -4.9 8 17.5 NNW 17 28 9 15 1008.9 1008.9 0.0
31/01:00pm 34.5 28.9 -2.9 9 17.6 N 17 28 9 15 1009.4 1009.4 0.0
31/12:30pm 33.4 28.4 1.3 13 16.0 N 17 26 9 14 1010.0 1010.0 0.0
31/12:00pm 32.2 28.8 5.7 19 14.1 N 13 20 7 11 1010.7 1010.7 0.0
31/11:30am 30.5 27.0 7.0 23 12.7 N 15 22 8 12 1011.5 1011.5 0.0
31/11:00am 28.6 26.1 8.3 28 11.1 N 11 19 6 10 1012.2 1012.2 0.0
31/10:30am 26.1 24.7 9.4 35 9.2 NW 7 11 4 6 1012.9 1012.9 0.0
31/10:00am 24.3 23.2 8.3 36 8.5 NW 4 9 2 5 1013.2 1013.2 0.0
31/09:30am 23.0 21.6 9.0 41 7.5 WNW 6 9 3 5 1013.4 1013.4 0.0
31/09:00am 21.5 19.7 9.4 46 6.5 WSW 9 15 5 8 1013.6 1013.6 0.0
31/08:30am 19.6 18.3 9.8 53 5.2 W 7 9 4 5 1013.5 1013.5 0.0
31/08:00am 18.1 16.8 10.0 59 4.3 WNW 7 9 4 5 1013.3 1013.3 0.0
31/07:30am 16.5 16.7 10.4 67 3.2 CALM 0 0 0 0 1013.2 1013.2 0.0
31/07:00am 14.8 15.2 11.4 80 1.8 CALM 0 0 0 0 1013.2 1013.2 0.0
31/06:30am 13.2 13.4 10.4 83 1.5 CALM 0 0 0 0 1013.0 1013.0 0.0
31/06:00am 13.0 12.8 9.1 77 2.0 CALM 0 0 0 0 1013.1 1013.1 0.0
31/05:30am 12.9 12.7 9.0 77 2.0 CALM 0 0 0 0 1012.9 1012.9 0.0
31/05:00am 13.6 13.3 8.7 72 2.5 CALM 0 0 0 0 1012.9 1012.9 0.0
31/04:30am 14.4 14.1 10.0 75 2.3 SSW 2 9 1 5 1012.7 1012.7 0.0
31/04:00am 13.7 13.6 9.6 76 2.1 CALM 0 0 0 0 1012.6 1012.6 0.0
31/03:30am 14.4 14.6 10.4 77 2.1 CALM 0 0 0 0 1012.5 1012.5 0.0
31/03:00am 14.4 14.4 9.8 74 2.4 CALM 0 0 0 0 1012.6 1012.6 0.0
31/02:30am 15.4 14.2 9.7 69 3.0 S 6 7 3 4 1012.7 1012.7 0.0
31/02:00am 15.2 15.3 10.0 71 2.7 CALM 0 0 0 0 1012.9 1012.9 0.0
31/01:30am 16.3 16.3 9.9 66 3.4 CALM 0 0 0 0 1013.1 1013.1 0.0
31/01:00am 16.5 16.7 10.6 68 3.1 CALM 0 0 0 0 1013.5 1013.5 0.0
31/12:30am 16.9 17.3 11.2 69 3.1 CALM 0 0 0 0 1013.7 1013.7 0.0
31/12:00am 16.1 15.1 8.8 62 3.7 ESE 4 9 2 5 1013.6 1013.6 0.0
 
Date/Time
EDT
Tmp

°C
App
Tmp
°C
Dew
Point
°C
Rel
Hum
%
Delta-T

°C
Wind Press
QNH
hPa
Press
MSL
hPa
Rain
since
9 am
mm
Dir
 
Spd
km/h
Gust
km/h
Spd
kts
Gust
kts
30/11:30pm 19.6 19.6 9.8 53 5.2 CALM 0 0 0 0 1013.6 1013.6 0.0
30/11:00pm 19.3 18.8 7.7 47 5.9 CALM 0 0 0 0 1013.6 1013.6 0.0
30/10:30pm 21.4 19.6 7.3 40 7.3 ESE 6 7 3 4 1013.6 1013.6 0.0
30/10:00pm 21.9 19.0 6.6 37 7.8 SE 11 13 6 7 1013.5 1013.5 0.0
30/09:30pm 22.6 20.0 6.0 34 8.4 E 9 17 5 9 1013.2 1013.2 0.0
30/09:00pm 23.0 20.3 5.4 32 8.8 E 9 15 5 8 1012.9 1012.9 0.0
30/08:30pm 23.6 20.5 5.5 31 9.1 E 11 17 6 9 1012.7 1012.7 0.0
30/08:00pm 24.2 20.4 6.0 31 9.3 E 15 19 8 10 1012.2 1012.2 0.0
30/07:30pm 25.5 22.7 7.1 31 9.7 E 11 15 6 8 1011.8 1011.8 0.0
30/07:00pm 26.8 23.2 6.8 28 10.5 E 15 20 8 11 1011.2 1011.2 0.0
30/06:30pm 28.1 25.0 7.4 27 11.1 E 13 17 7 9 1010.8 1010.8 0.0
30/06:00pm 31.0 28.9 3.9 18 13.9 NNW 4 7 2 4 1010.2 1010.2 0.0
30/05:30pm 31.0 27.9 0.4 14 14.8 ENE 6 11 3 6 1010.1 1010.1 0.0
30/05:00pm 30.9 27.7 3.0 17 14.1 NW 9 11 5 6 1010.1 1010.1 0.0
30/04:30pm 30.8 28.1 3.8 18 13.8 SW 7 11 4 6 1010.3 1010.3 0.0
30/04:00pm 30.9 27.2 4.6 19 13.7 WSW 13 24 7 13 1010.4 1010.4 0.0
30/03:30pm 30.6 27.1 3.6 18 13.8 W 11 19 6 10 1010.9 1010.9 0.0
30/03:00pm 30.3 27.1 4.9 20 13.2 W 11 26 6 14 1011.4 1011.4 0.0
30/02:30pm 30.0 24.9 3.9 19 13.3 WSW 20 30 11 16 1011.9 1011.9 0.0
30/02:00pm 29.3 24.6 3.3 19 13.1 WNW 17 26 9 14 1012.2 1012.2 0.0
30/01:30pm 28.8 25.7 5.6 23 12.1 WNW 11 19 6 10 1012.6 1012.6 0.0
30/01:00pm 28.4 23.7 3.3 20 12.6 W 17 26 9 14 1012.9 1012.9 0.0
30/12:30pm 27.7 24.7 4.1 22 11.9 WNW 9 20 5 11 1013.4 1013.4 0.0
30/12:00pm 27.5 25.2 7.4 28 10.7 NNW 9 17 5 9 1013.8 1013.8 0.0
30/11:30am 26.7 25.2 12.0 40 8.5 W 11 15 6 8 1014.3 1014.3 0.0
30/11:00am 24.7 22.9 9.4 38 8.3 NW 9 17 5 9 1014.7 1014.7 0.0
30/10:30am 23.6 23.1 12.6 50 6.3 NNW 7 13 4 7 1015.0 1015.0 0.0
30/10:00am 22.4 22.0 14.0 59 4.9 WNW 9 13 5 7 1015.3 1015.3 0.0
30/09:30am 21.0 19.7 13.7 63 4.2 NW 13 17 7 9 1015.5 1015.5 0.0
30/09:00am 20.3 19.6 14.2 68 3.5 NW 11 17 6 9 1015.5 1015.5 0.0
30/08:30am 18.9 18.5 14.2 74 2.7 NW 9 13 5 7 1015.8 1015.8 0.0
30/08:00am 17.4 16.9 13.9 80 2.0 NW 9 11 5 6 1015.7 1015.7 0.0
30/07:30am 15.9 16.1 14.3 90 0.9 NNW 6 7 3 4 1015.7 1015.7 0.0
30/07:00am 14.1 15.0 12.8 92 0.7 CALM 0 0 0 0 1015.4 1015.4 0.0
30/06:30am 13.1 13.6 11.7 91 0.7 CALM 0 0 0 0 1015.3 1015.3 0.0
30/06:00am 12.9 13.4 11.5 91 0.7 CALM 0 0 0 0 1015.1 1015.1 0.0
30/05:30am 13.2 13.8 11.8 91 0.7 CALM 0 0 0 0 1014.9 1014.9 0.0
30/05:21am 13.4 14.0 12.0 91 0.8 CALM 0 0 0 0 1014.8 1014.8 0.0
30/05:00am 13.2 13.7 11.6 90 0.9 CALM 0 0 0 0 1014.8 1014.8 0.0
30/04:45am 13.5 14.1 11.9 90 0.9 CALM 0 0 0 0 1014.7 1014.7 0.0
30/04:30am 13.9 14.6 12.3 90 0.9 CALM 0 0 0 0 1014.7 1014.7 0.0
30/04:00am 13.8 14.4 12.0 89 1.0 CALM 0 0 0 0 1015.0 1015.0 0.0
30/03:30am 14.1 14.8 12.1 88 1.1 CALM 0 0 0 0 1015.2 1015.2 0.0
30/03:00am 14.7 15.6 12.9 89 1.0 CALM 0 0 0 0 1015.5 1015.5 0.0
30/02:30am 14.9 15.4 12.8 87 1.2 N 2 6 1 3 1015.7 1015.7 0.0
30/02:00am 15.0 15.8 12.5 85 1.4 CALM 0 0 0 0 1016.0 1016.0 0.0
30/01:30am 15.2 16.0 12.7 85 1.4 CALM 0 0 0 0 1016.2 1016.2 0.0
30/01:00am 16.0 16.9 12.9 82 1.7 CALM 0 0 0 0 1016.4 1016.4 0.0
30/12:30am 15.8 16.6 12.4 80 1.9 CALM 0 0 0 0 1016.8 1016.8 0.0
30/12:00am 17.4 18.3 12.9 75 2.5 CALM 0 0 0 0 1017.0 1017.0 0.0
 
Date/Time
EDT
Tmp

°C
App
Tmp
°C
Dew
Point
°C
Rel
Hum
%
Delta-T

°C
Wind Press
QNH
hPa
Press
MSL
hPa
Rain
since
9 am
mm
Dir
 
Spd
km/h
Gust
km/h
Spd
kts
Gust
kts
29/11:30pm 18.0 17.9 13.3 74 2.7 N 6 7 3 4 1017.0 1017.0 0.0
29/11:00pm 18.3 17.7 13.4 73 2.8 NNE 9 13 5 7 1017.1 1017.1 0.0
29/10:30pm 18.6 17.6 13.5 72 2.9 NNE 11 15 6 8 1017.0 1017.0 0.0
29/10:00pm 18.8 18.2 13.6 72 3.0 NE 9 15 5 8 1017.0 1017.0 0.0
29/09:30pm 19.0 18.1 13.6 71 3.1 NE 11 17 6 9 1017.0 1017.0 0.0
29/09:00pm 19.0 17.9 13.2 69 3.3 NNE 11 17 6 9 1017.0 1017.0 0.0
29/08:30pm 19.3 17.8 13.0 67 3.6 NNE 13 20 7 11 1016.7 1016.7 0.0
29/08:00pm 19.6 17.7 13.1 66 3.7 NE 15 22 8 12 1016.5 1016.5 0.0
29/07:30pm 19.8 17.5 13.0 65 3.9 NE 17 24 9 13 1016.1 1016.1 0.0
29/07:00pm 20.0 17.0 12.7 63 4.1 NE 20 28 11 15 1015.8 1015.8 0.0
29/06:30pm 20.2 17.3 12.9 63 4.1 ENE 20 28 11 15 1015.4 1015.4 0.0
29/06:00pm 21.1 17.7 12.5 58 4.9 E 22 28 12 15 1014.9 1014.9 0.0
29/05:30pm 21.4 17.6 12.5 57 5.0 ENE 24 32 13 17 1014.7 1014.7 0.0
29/05:00pm 21.9 18.3 11.9 53 5.6 ENE 22 32 12 17 1014.5 1014.5 0.0
29/04:30pm 22.3 18.8 12.3 53 5.7 ENE 22 30 12 16 1014.7 1014.7 0.0
29/04:00pm 22.8 18.6 11.2 48 6.5 NE 24 35 13 19 1014.8 1014.8 0.0

Latest Capital City Observations: Canberra | Sydney | Melbourne | Brisbane | Adelaide | Perth | Hobart | Darwin

Other Formats:

Comma delimited format used in spreadsheet applications
http://www.bom.gov.au/fwo/IDN60901/IDN60901.94765.axf

JavaScript Object Notation format (JSON) in row-major order
http://www.bom.gov.au/fwo/IDN60901/IDN60901.94765.json